sensor_id;sensor_type;location;lat;lon;timestamp;temperature;humidity
25360;DHT22;13311;51.386;0.016;2022-08-19T00:03:04;24.00;84.00
25360;DHT22;13311;51.386;0.016;2022-08-19T00:08:07;24.10;85.60
25360;DHT22;13311;51.386;0.016;2022-08-19T00:13:07;24.10;86.00
25360;DHT22;13311;51.386;0.016;2022-08-19T00:18:08;23.90;87.30
25360;DHT22;13311;51.386;0.016;2022-08-19T00:23:09;23.90;86.90
25360;DHT22;13311;51.386;0.016;2022-08-19T00:28:10;23.80;87.80
25360;DHT22;13311;51.386;0.016;2022-08-19T00:33:11;23.80;86.80
25360;DHT22;13311;51.386;0.016;2022-08-19T00:38:12;23.90;88.00
25360;DHT22;13311;51.386;0.016;2022-08-19T00:43:13;23.90;88.90
25360;DHT22;13311;51.386;0.016;2022-08-19T00:48:20;23.80;89.50
25360;DHT22;13311;51.386;0.016;2022-08-19T00:53:23;23.90;88.80
25360;DHT22;13311;51.386;0.016;2022-08-19T00:58:30;24.00;87.00
25360;DHT22;13311;51.386;0.016;2022-08-19T01:03:33;24.00;89.00
25360;DHT22;13311;51.386;0.016;2022-08-19T01:08:34;24.00;90.10
25360;DHT22;13311;51.386;0.016;2022-08-19T01:13:36;24.00;90.60
25360;DHT22;13311;51.386;0.016;2022-08-19T01:18:40;24.00;90.50
25360;DHT22;13311;51.386;0.016;2022-08-19T01:23:43;23.80;90.90
25360;DHT22;13311;51.386;0.016;2022-08-19T01:28:46;23.70;91.20
25360;DHT22;13311;51.386;0.016;2022-08-19T01:33:49;23.60;91.40
25360;DHT22;13311;51.386;0.016;2022-08-19T01:38:52;23.50;91.70
25360;DHT22;13311;51.386;0.016;2022-08-19T01:43:54;23.50;91.60
25360;DHT22;13311;51.386;0.016;2022-08-19T01:48:56;23.40;92.10
25360;DHT22;13311;51.386;0.016;2022-08-19T01:53:57;23.40;92.20
25360;DHT22;13311;51.386;0.016;2022-08-19T01:59:02;23.50;92.00
25360;DHT22;13311;51.386;0.016;2022-08-19T02:04:10;23.50;92.10
25360;DHT22;13311;51.386;0.016;2022-08-19T02:09:10;23.50;92.00
25360;DHT22;13311;51.386;0.016;2022-08-19T02:14:11;23.60;92.10
25360;DHT22;13311;51.386;0.016;2022-08-19T02:19:12;23.60;92.20
25360;DHT22;13311;51.386;0.016;2022-08-19T02:24:13;23.60;92.20
25360;DHT22;13311;51.386;0.016;2022-08-19T02:29:14;23.70;92.00
25360;DHT22;13311;51.386;0.016;2022-08-19T02:34:15;23.60;92.20
25360;DHT22;13311;51.386;0.016;2022-08-19T02:39:16;23.70;92.20
25360;DHT22;13311;51.386;0.016;2022-08-19T02:44:17;23.70;91.90
25360;DHT22;13311;51.386;0.016;2022-08-19T02:49:19;23.70;91.90
25360;DHT22;13311;51.386;0.016;2022-08-19T02:54:19;23.70;92.00
25360;DHT22;13311;51.386;0.016;2022-08-19T02:59:20;23.70;92.00
25360;DHT22;13311;51.386;0.016;2022-08-19T03:04:21;23.90;91.70
25360;DHT22;13311;51.386;0.016;2022-08-19T03:09:23;23.80;92.00
25360;DHT22;13311;51.386;0.016;2022-08-19T03:14:24;23.70;92.30
25360;DHT22;13311;51.386;0.016;2022-08-19T03:19:24;23.70;92.50
25360;DHT22;13311;51.386;0.016;2022-08-19T03:24:25;23.70;92.30
25360;DHT22;13311;51.386;0.016;2022-08-19T03:29:27;23.80;92.10
25360;DHT22;13311;51.386;0.016;2022-08-19T03:34:33;23.80;92.10
25360;DHT22;13311;51.386;0.016;2022-08-19T03:39:36;23.70;92.30
25360;DHT22;13311;51.386;0.016;2022-08-19T03:44:38;23.70;93.00
25360;DHT22;13311;51.386;0.016;2022-08-19T03:49:39;23.70;93.60
25360;DHT22;13311;51.386;0.016;2022-08-19T03:54:39;23.60;94.50
25360;DHT22;13311;51.386;0.016;2022-08-19T03:59:40;23.60;94.70
25360;DHT22;13311;51.386;0.016;2022-08-19T04:04:43;23.60;94.80
25360;DHT22;13311;51.386;0.016;2022-08-19T04:09:44;23.50;95.00
25360;DHT22;13311;51.386;0.016;2022-08-19T04:14:45;23.40;95.30
25360;DHT22;13311;51.386;0.016;2022-08-19T04:19:46;23.40;95.60
25360;DHT22;13311;51.386;0.016;2022-08-19T04:24:47;23.30;95.60
25360;DHT22;13311;51.386;0.016;2022-08-19T04:29:48;23.40;95.40
25360;DHT22;13311;51.386;0.016;2022-08-19T04:34:48;23.40;95.50
25360;DHT22;13311;51.386;0.016;2022-08-19T04:39:49;23.40;95.40
25360;DHT22;13311;51.386;0.016;2022-08-19T04:45:11;23.50;95.30
25360;DHT22;13311;51.386;0.016;2022-08-19T04:50:14;23.50;95.50
25360;DHT22;13311;51.386;0.016;2022-08-19T04:55:14;23.40;95.50
25360;DHT22;13311;51.386;0.016;2022-08-19T05:00:15;23.40;95.60
25360;DHT22;13311;51.386;0.016;2022-08-19T05:05:16;23.40;95.50
25360;DHT22;13311;51.386;0.016;2022-08-19T05:10:17;23.50;95.10
25360;DHT22;13311;51.386;0.016;2022-08-19T05:15:19;23.60;94.50
25360;DHT22;13311;51.386;0.016;2022-08-19T05:20:19;23.60;94.10
25360;DHT22;13311;51.386;0.016;2022-08-19T05:25:39;23.70;94.00
25360;DHT22;13311;51.386;0.016;2022-08-19T05:30:41;23.70;94.40
25360;DHT22;13311;51.386;0.016;2022-08-19T05:35:43;23.60;94.60
25360;DHT22;13311;51.386;0.016;2022-08-19T05:40:44;23.70;94.40
25360;DHT22;13311;51.386;0.016;2022-08-19T05:45:47;23.90;91.80
25360;DHT22;13311;51.386;0.016;2022-08-19T05:50:48;23.90;92.70
25360;DHT22;13311;51.386;0.016;2022-08-19T05:55:50;24.00;92.60
25360;DHT22;13311;51.386;0.016;2022-08-19T06:00:51;24.00;92.40
25360;DHT22;13311;51.386;0.016;2022-08-19T06:05:53;24.10;90.60
25360;DHT22;13311;51.386;0.016;2022-08-19T06:10:55;24.30;90.60
25360;DHT22;13311;51.386;0.016;2022-08-19T06:15:56;24.50;90.70
25360;DHT22;13311;51.386;0.016;2022-08-19T06:20:56;24.90;89.50
25360;DHT22;13311;51.386;0.016;2022-08-19T06:25:57;25.20;87.70
25360;DHT22;13311;51.386;0.016;2022-08-19T06:30:58;25.50;84.20
25360;DHT22;13311;51.386;0.016;2022-08-19T06:35:59;25.50;85.60
25360;DHT22;13311;51.386;0.016;2022-08-19T06:41:03;25.50;82.70
25360;DHT22;13311;51.386;0.016;2022-08-19T06:46:10;25.50;84.10
25360;DHT22;13311;51.386;0.016;2022-08-19T06:51:17;25.40;83.70
25360;DHT22;13311;51.386;0.016;2022-08-19T06:56:24;25.40;81.00
25360;DHT22;13311;51.386;0.016;2022-08-19T07:01:38;25.40;80.80
25360;DHT22;13311;51.386;0.016;2022-08-19T07:06:39;25.20;80.60
25360;DHT22;13311;51.386;0.016;2022-08-19T07:11:45;25.10;81.20
25360;DHT22;13311;51.386;0.016;2022-08-19T07:16:50;25.00;82.60
25360;DHT22;13311;51.386;0.016;2022-08-19T07:21:51;25.00;81.60
25360;DHT22;13311;51.386;0.016;2022-08-19T07:26:57;24.90;83.10
25360;DHT22;13311;51.386;0.016;2022-08-19T07:32:02;24.90;82.00
25360;DHT22;13311;51.386;0.016;2022-08-19T07:37:05;24.90;83.60
25360;DHT22;13311;51.386;0.016;2022-08-19T07:42:09;24.80;83.10
25360;DHT22;13311;51.386;0.016;2022-08-19T07:47:11;24.80;82.60
25360;DHT22;13311;51.386;0.016;2022-08-19T07:52:13;24.90;81.90
25360;DHT22;13311;51.386;0.016;2022-08-19T07:57:13;25.00;82.30
25360;DHT22;13311;51.386;0.016;2022-08-19T08:02:14;25.20;80.80
25360;DHT22;13311;51.386;0.016;2022-08-19T08:07:15;25.20;81.60
25360;DHT22;13311;51.386;0.016;2022-08-19T08:12:39;25.20;80.70
25360;DHT22;13311;51.386;0.016;2022-08-19T08:17:42;25.40;80.30
25360;DHT22;13311;51.386;0.016;2022-08-19T08:22:45;25.50;79.90
25360;DHT22;13311;51.386;0.016;2022-08-19T08:28:05;25.70;79.50
25360;DHT22;13311;51.386;0.016;2022-08-19T08:33:08;25.80;79.90
25360;DHT22;13311;51.386;0.016;2022-08-19T08:38:09;26.00;78.20
25360;DHT22;13311;51.386;0.016;2022-08-19T08:43:29;26.10;77.10
25360;DHT22;13311;51.386;0.016;2022-08-19T08:53:49;26.40;75.80
25360;DHT22;13311;51.386;0.016;2022-08-19T08:59:03;26.50;75.40
25360;DHT22;13311;51.386;0.016;2022-08-19T09:04:08;26.60;74.60
25360;DHT22;13311;51.386;0.016;2022-08-19T09:14:48;26.50;74.30
25360;DHT22;13311;51.386;0.016;2022-08-19T09:20:19;26.60;73.10
25360;DHT22;13311;51.386;0.016;2022-08-19T09:25:24;26.70;73.20
25360;DHT22;13311;51.386;0.016;2022-08-19T09:30:29;26.90;72.60
25360;DHT22;13311;51.386;0.016;2022-08-19T09:35:32;27.00;72.00
25360;DHT22;13311;51.386;0.016;2022-08-19T09:40:33;27.00;72.20
25360;DHT22;13311;51.386;0.016;2022-08-19T09:45:34;27.10;72.40
25360;DHT22;13311;51.386;0.016;2022-08-19T09:50:35;27.10;72.40
25360;DHT22;13311;51.386;0.016;2022-08-19T09:55:42;27.20;72.40
25360;DHT22;13311;51.386;0.016;2022-08-19T10:00:44;27.10;72.60
25360;DHT22;13311;51.386;0.016;2022-08-19T10:05:46;27.20;72.40
25360;DHT22;13311;51.386;0.016;2022-08-19T10:10:50;27.20;72.20
25360;DHT22;13311;51.386;0.016;2022-08-19T10:15:52;27.30;71.70
25360;DHT22;13311;51.386;0.016;2022-08-19T10:21:13;27.40;71.50
25360;DHT22;13311;51.386;0.016;2022-08-19T10:26:22;27.40;71.10
25360;DHT22;13311;51.386;0.016;2022-08-19T10:31:28;27.40;70.60
25360;DHT22;13311;51.386;0.016;2022-08-19T10:36:33;27.20;70.10
25360;DHT22;13311;51.386;0.016;2022-08-19T10:41:37;27.20;71.30
25360;DHT22;13311;51.386;0.016;2022-08-19T10:46:41;27.10;71.70
25360;DHT22;13311;51.386;0.016;2022-08-19T10:51:42;27.00;72.00
25360;DHT22;13311;51.386;0.016;2022-08-19T10:57:18;26.90;72.40
25360;DHT22;13311;51.386;0.016;2022-08-19T11:02:19;26.90;72.00
25360;DHT22;13311;51.386;0.016;2022-08-19T11:07:20;26.90;71.20
25360;DHT22;13311;51.386;0.016;2022-08-19T11:12:21;26.70;72.30
25360;DHT22;13311;51.386;0.016;2022-08-19T11:17:22;26.50;72.20
25360;DHT22;13311;51.386;0.016;2022-08-19T11:22:23;26.50;72.90
25360;DHT22;13311;51.386;0.016;2022-08-19T11:27:24;26.60;73.00
25360;DHT22;13311;51.386;0.016;2022-08-19T11:32:25;26.70;72.10
25360;DHT22;13311;51.386;0.016;2022-08-19T11:37:26;26.70;72.20
25360;DHT22;13311;51.386;0.016;2022-08-19T11:42:27;27.00;71.50
25360;DHT22;13311;51.386;0.016;2022-08-19T11:47:47;27.20;71.10
25360;DHT22;13311;51.386;0.016;2022-08-19T11:52:48;27.30;70.00
25360;DHT22;13311;51.386;0.016;2022-08-19T11:57:49;27.30;69.10
25360;DHT22;13311;51.386;0.016;2022-08-19T12:02:50;27.30;68.20
25360;DHT22;13311;51.386;0.016;2022-08-19T12:07:51;27.40;68.00
25360;DHT22;13311;51.386;0.016;2022-08-19T12:12:52;27.40;65.80
25360;DHT22;13311;51.386;0.016;2022-08-19T12:17:53;27.30;66.40
25360;DHT22;13311;51.386;0.016;2022-08-19T12:22:56;27.40;67.10
25360;DHT22;13311;51.386;0.016;2022-08-19T12:27:57;27.40;64.80
25360;DHT22;13311;51.386;0.016;2022-08-19T12:32:58;27.50;67.30
25360;DHT22;13311;51.386;0.016;2022-08-19T12:37:59;27.30;61.50
25360;DHT22;13311;51.386;0.016;2022-08-19T12:43:02;27.50;65.50
25360;DHT22;13311;51.386;0.016;2022-08-19T12:48:03;27.50;60.80
25360;DHT22;13311;51.386;0.016;2022-08-19T12:53:05;27.50;63.20
25360;DHT22;13311;51.386;0.016;2022-08-19T12:58:05;27.60;66.40
25360;DHT22;13311;51.386;0.016;2022-08-19T13:03:06;27.60;63.70
25360;DHT22;13311;51.386;0.016;2022-08-19T13:08:07;27.80;61.30
25360;DHT22;13311;51.386;0.016;2022-08-19T13:13:09;28.00;63.30
25360;DHT22;13311;51.386;0.016;2022-08-19T13:18:13;28.30;61.30
25360;DHT22;13311;51.386;0.016;2022-08-19T13:23:14;28.50;63.90
25360;DHT22;13311;51.386;0.016;2022-08-19T13:28:15;28.60;58.70
25360;DHT22;13311;51.386;0.016;2022-08-19T13:33:16;28.80;62.00
25360;DHT22;13311;51.386;0.016;2022-08-19T13:38:20;28.90;59.10
25360;DHT22;13311;51.386;0.016;2022-08-19T13:43:25;29.00;58.00
25360;DHT22;13311;51.386;0.016;2022-08-19T13:48:27;29.10;59.40
25360;DHT22;13311;51.386;0.016;2022-08-19T13:53:28;29.10;58.90
25360;DHT22;13311;51.386;0.016;2022-08-19T13:58:30;29.10;60.50
25360;DHT22;13311;51.386;0.016;2022-08-19T14:03:33;29.20;57.50
25360;DHT22;13311;51.386;0.016;2022-08-19T14:08:34;29.30;57.90
25360;DHT22;13311;51.386;0.016;2022-08-19T14:13:39;29.20;57.10
25360;DHT22;13311;51.386;0.016;2022-08-19T14:18:41;29.10;58.50
25360;DHT22;13311;51.386;0.016;2022-08-19T14:23:43;29.00;57.20
25360;DHT22;13311;51.386;0.016;2022-08-19T14:28:45;28.80;59.90
25360;DHT22;13311;51.386;0.016;2022-08-19T14:33:49;28.60;62.40
25360;DHT22;13311;51.386;0.016;2022-08-19T14:38:50;28.50;62.40
25360;DHT22;13311;51.386;0.016;2022-08-19T14:43:53;28.30;62.00
25360;DHT22;13311;51.386;0.016;2022-08-19T14:48:55;28.40;59.70
25360;DHT22;13311;51.386;0.016;2022-08-19T14:53:56;28.40;60.10
25360;DHT22;13311;51.386;0.016;2022-08-19T14:58:57;28.40;54.80
25360;DHT22;13311;51.386;0.016;2022-08-19T15:04:01;28.40;59.00
25360;DHT22;13311;51.386;0.016;2022-08-19T15:09:02;28.50;58.90
25360;DHT22;13311;51.386;0.016;2022-08-19T15:14:04;28.50;59.80
25360;DHT22;13311;51.386;0.016;2022-08-19T15:19:05;28.50;52.70
25360;DHT22;13311;51.386;0.016;2022-08-19T15:24:06;28.40;54.60
25360;DHT22;13311;51.386;0.016;2022-08-19T15:29:07;28.40;53.30
25360;DHT22;13311;51.386;0.016;2022-08-19T15:34:08;28.40;47.30
25360;DHT22;13311;51.386;0.016;2022-08-19T15:39:09;28.50;58.50
25360;DHT22;13311;51.386;0.016;2022-08-19T15:44:13;28.40;57.20
25360;DHT22;13311;51.386;0.016;2022-08-19T15:49:18;28.40;60.00
25360;DHT22;13311;51.386;0.016;2022-08-19T15:54:21;28.20;60.80
25360;DHT22;13311;51.386;0.016;2022-08-19T15:59:23;28.20;60.30
25360;DHT22;13311;51.386;0.016;2022-08-19T16:04:43;28.20;60.70
25360;DHT22;13311;51.386;0.016;2022-08-19T16:10:07;28.20;59.80
25360;DHT22;13311;51.386;0.016;2022-08-19T16:15:09;28.10;59.30
25360;DHT22;13311;51.386;0.016;2022-08-19T16:20:10;28.00;57.40
25360;DHT22;13311;51.386;0.016;2022-08-19T16:25:11;28.00;55.20
25360;DHT22;13311;51.386;0.016;2022-08-19T16:30:13;28.00;57.20
25360;DHT22;13311;51.386;0.016;2022-08-19T16:35:14;28.00;61.70
25360;DHT22;13311;51.386;0.016;2022-08-19T16:40:14;27.80;60.60
25360;DHT22;13311;51.386;0.016;2022-08-19T16:45:15;27.60;55.90
25360;DHT22;13311;51.386;0.016;2022-08-19T16:50:21;27.60;56.90
25360;DHT22;13311;51.386;0.016;2022-08-19T16:55:22;27.60;57.80
25360;DHT22;13311;51.386;0.016;2022-08-19T17:00:22;27.60;57.80
25360;DHT22;13311;51.386;0.016;2022-08-19T17:05:23;27.60;59.80
25360;DHT22;13311;51.386;0.016;2022-08-19T17:10:24;27.50;59.00
25360;DHT22;13311;51.386;0.016;2022-08-19T17:15:25;27.50;59.20
25360;DHT22;13311;51.386;0.016;2022-08-19T17:20:25;27.40;57.40
25360;DHT22;13311;51.386;0.016;2022-08-19T17:25:28;27.40;54.30
25360;DHT22;13311;51.386;0.016;2022-08-19T17:30:32;27.40;55.70
25360;DHT22;13311;51.386;0.016;2022-08-19T17:35:34;27.30;58.60
25360;DHT22;13311;51.386;0.016;2022-08-19T17:40:35;27.20;52.80
25360;DHT22;13311;51.386;0.016;2022-08-19T17:45:37;27.30;55.80
25360;DHT22;13311;51.386;0.016;2022-08-19T17:50:39;27.20;56.60
25360;DHT22;13311;51.386;0.016;2022-08-19T17:55:41;27.30;56.60
25360;DHT22;13311;51.386;0.016;2022-08-19T18:00:41;27.20;56.70
25360;DHT22;13311;51.386;0.016;2022-08-19T18:05:42;27.20;57.80
25360;DHT22;13311;51.386;0.016;2022-08-19T18:10:43;27.10;54.90
25360;DHT22;13311;51.386;0.016;2022-08-19T18:15:44;27.00;53.90
25360;DHT22;13311;51.386;0.016;2022-08-19T18:20:46;27.00;54.50
25360;DHT22;13311;51.386;0.016;2022-08-19T18:25:47;27.00;57.30
25360;DHT22;13311;51.386;0.016;2022-08-19T18:30:48;26.80;57.00
25360;DHT22;13311;51.386;0.016;2022-08-19T18:35:49;26.80;54.50
25360;DHT22;13311;51.386;0.016;2022-08-19T18:40:52;26.70;54.70
25360;DHT22;13311;51.386;0.016;2022-08-19T18:46:11;26.80;58.50
25360;DHT22;13311;51.386;0.016;2022-08-19T18:51:31;26.70;56.70
25360;DHT22;13311;51.386;0.016;2022-08-19T18:56:32;26.60;56.60
25360;DHT22;13311;51.386;0.016;2022-08-19T19:01:36;26.50;55.90
25360;DHT22;13311;51.386;0.016;2022-08-19T19:06:40;26.50;57.00
25360;DHT22;13311;51.386;0.016;2022-08-19T19:11:44;26.30;54.70
25360;DHT22;13311;51.386;0.016;2022-08-19T19:16:47;26.20;55.80
25360;DHT22;13311;51.386;0.016;2022-08-19T19:21:48;26.10;54.40
25360;DHT22;13311;51.386;0.016;2022-08-19T19:26:51;26.00;54.40
25360;DHT22;13311;51.386;0.016;2022-08-19T19:31:52;25.80;53.10
25360;DHT22;13311;51.386;0.016;2022-08-19T19:36:55;25.70;52.90
25360;DHT22;13311;51.386;0.016;2022-08-19T19:41:56;25.80;58.50
25360;DHT22;13311;51.386;0.016;2022-08-19T19:46:57;25.70;54.30
25360;DHT22;13311;51.386;0.016;2022-08-19T19:51:59;25.50;52.50
25360;DHT22;13311;51.386;0.016;2022-08-19T19:56:59;25.30;53.70
25360;DHT22;13311;51.386;0.016;2022-08-19T20:02:00;25.10;52.90
25360;DHT22;13311;51.386;0.016;2022-08-19T20:07:01;24.90;52.30
25360;DHT22;13311;51.386;0.016;2022-08-19T20:12:03;24.70;52.50
25360;DHT22;13311;51.386;0.016;2022-08-19T20:17:04;24.50;53.00
25360;DHT22;13311;51.386;0.016;2022-08-19T20:22:05;24.30;53.40
25360;DHT22;13311;51.386;0.016;2022-08-19T20:27:06;24.10;53.70
25360;DHT22;13311;51.386;0.016;2022-08-19T20:32:08;24.00;54.10
25360;DHT22;13311;51.386;0.016;2022-08-19T20:37:09;23.90;54.20
25360;DHT22;13311;51.386;0.016;2022-08-19T20:42:10;23.90;54.50
25360;DHT22;13311;51.386;0.016;2022-08-19T20:47:10;23.90;54.70
25360;DHT22;13311;51.386;0.016;2022-08-19T20:52:11;23.90;55.00
25360;DHT22;13311;51.386;0.016;2022-08-19T20:57:13;23.90;54.80
25360;DHT22;13311;51.386;0.016;2022-08-19T21:02:13;23.80;55.40
25360;DHT22;13311;51.386;0.016;2022-08-19T21:07:15;23.60;54.80
25360;DHT22;13311;51.386;0.016;2022-08-19T21:12:16;23.60;55.30
25360;DHT22;13311;51.386;0.016;2022-08-19T21:17:18;23.60;55.40
25360;DHT22;13311;51.386;0.016;2022-08-19T21:22:19;23.60;55.60
25360;DHT22;13311;51.386;0.016;2022-08-19T21:27:20;23.50;56.00
25360;DHT22;13311;51.386;0.016;2022-08-19T21:32:20;23.40;56.10
25360;DHT22;13311;51.386;0.016;2022-08-19T21:37:23;23.20;56.50
25360;DHT22;13311;51.386;0.016;2022-08-19T21:42:24;23.20;56.90
25360;DHT22;13311;51.386;0.016;2022-08-19T21:47:24;23.00;57.30
25360;DHT22;13311;51.386;0.016;2022-08-19T21:52:26;23.00;57.50
25360;DHT22;13311;51.386;0.016;2022-08-19T21:57:26;22.80;57.80
25360;DHT22;13311;51.386;0.016;2022-08-19T22:02:27;22.70;58.30
25360;DHT22;13311;51.386;0.016;2022-08-19T22:07:28;22.60;58.60
25360;DHT22;13311;51.386;0.016;2022-08-19T22:12:33;22.50;58.90
25360;DHT22;13311;51.386;0.016;2022-08-19T22:17:37;22.30;59.20
25360;DHT22;13311;51.386;0.016;2022-08-19T22:22:44;22.30;59.40
25360;DHT22;13311;51.386;0.016;2022-08-19T22:27:46;22.20;59.70
25360;DHT22;13311;51.386;0.016;2022-08-19T22:32:53;22.10;59.70
25360;DHT22;13311;51.386;0.016;2022-08-19T22:38:00;22.00;60.00
25360;DHT22;13311;51.386;0.016;2022-08-19T22:43:05;21.90;60.40
25360;DHT22;13311;51.386;0.016;2022-08-19T22:48:13;21.80;60.60
25360;DHT22;13311;51.386;0.016;2022-08-19T22:53:16;21.70;60.80
25360;DHT22;13311;51.386;0.016;2022-08-19T22:58:16;21.60;61.20
25360;DHT22;13311;51.386;0.016;2022-08-19T23:03:17;21.60;61.50
25360;DHT22;13311;51.386;0.016;2022-08-19T23:08:19;21.50;61.70
25360;DHT22;13311;51.386;0.016;2022-08-19T23:13:19;21.40;62.10
25360;DHT22;13311;51.386;0.016;2022-08-19T23:18:20;21.30;62.30
25360;DHT22;13311;51.386;0.016;2022-08-19T23:23:21;21.30;62.60
25360;DHT22;13311;51.386;0.016;2022-08-19T23:28:24;21.30;62.50
25360;DHT22;13311;51.386;0.016;2022-08-19T23:33:43;21.30;62.80
25360;DHT22;13311;51.386;0.016;2022-08-19T23:38:46;21.30;63.20
25360;DHT22;13311;51.386;0.016;2022-08-19T23:43:48;21.10;64.50
25360;DHT22;13311;51.386;0.016;2022-08-19T23:48:49;21.00;64.10
25360;DHT22;13311;51.386;0.016;2022-08-19T23:53:50;21.00;64.60
25360;DHT22;13311;51.386;0.016;2022-08-19T23:58:50;21.00;65.10
